Time,TemperatureF,DewpointF,PressureIn,WindDirection,WindDirectionDegrees,WindSpeedMPH,WindSpeedGustMPH,Humidity,HourlyPrecipIn,Conditions,Clouds,dailyrainin,SoftwareType,DateUTC
2013-03-20 00:02:00,20.0,9.8,30.31,West,276,6.0,7.0,64,0.00,,BKN001,0.00,VWS V14.00,2013-03-20 06:02:00,
2013-03-20 00:07:00,20.5,9.2,30.31,WSW,240,4.0,10.0,61,0.00,,BKN001,0.00,VWS V14.00,2013-03-20 06:07:00,
2013-03-20 00:12:00,20.5,9.2,30.31,West,262,5.0,10.0,61,0.00,,BKN001,0.00,VWS V14.00,2013-03-20 06:12:00,
2013-03-20 00:17:00,20.5,9.2,30.31,SSW,195,5.0,10.0,61,0.00,,BKN001,0.00,VWS V14.00,2013-03-20 06:17:00,
2013-03-20 00:22:00,19.5,9.0,30.32,WSW,245,5.0,10.0,63,0.00,,BKN001,0.00,VWS V14.00,2013-03-20 06:22:00,
2013-03-20 00:27:00,18.8,9.0,30.32,SW,229,3.0,10.0,65,0.00,,BKN001,0.00,VWS V14.00,2013-03-20 06:27:00,
2013-03-20 00:32:00,18.4,9.0,30.32,WSW,248,2.0,4.0,66,0.00,,BKN001,0.00,VWS V14.00,2013-03-20 06:32:00,
2013-03-20 00:37:00,18.5,9.1,30.32,SSW,210,6.0,6.0,66,0.00,,BKN001,0.00,VWS V14.00,2013-03-20 06:37:00,
2013-03-20 00:42:00,18.8,9.0,30.32,WSW,252,4.0,7.0,65,0.00,,BKN001,0.00,VWS V14.00,2013-03-20 06:42:00,
2013-03-20 00:47:00,18.9,9.1,30.32,SW,230,5.0,7.0,65,0.00,,BKN001,0.00,VWS V14.00,2013-03-20 06:47:00,
2013-03-20 00:52:00,18.3,8.5,30.32,SSE,160,3.0,7.0,65,0.00,,BKN001,0.00,VWS V14.00,2013-03-20 06:52:00,
2013-03-20 00:57:00,18.0,8.9,30.32,SW,229,3.0,7.0,67,0.00,,BKN001,0.00,VWS V14.00,2013-03-20 06:57:00,
2013-03-20 01:00:00,19.9,9.7,30.31,West,259,4.0,7.0,64,0.00,,BKN001,0.00,VWS V14.00,2013-03-20 07:00:00,
2013-03-20 01:02:00,17.4,8.3,30.32,WSW,250,5.0,5.0,67,0.00,,BKN001,0.00,VWS V14.00,2013-03-20 07:02:00,
2013-03-20 01:07:00,17.1,8.4,30.32,West,262,1.0,6.0,68,0.00,,BKN001,0.00,VWS V14.00,2013-03-20 07:07:00,
2013-03-20 01:12:00,16.6,8.2,30.32,WSW,245,2.0,6.0,69,0.00,,BKN001,0.00,VWS V14.00,2013-03-20 07:12:00,
2013-03-20 01:17:00,16.4,8.0,30.33,SSW,197,2.0,6.0,69,0.00,,BKN001,0.00,VWS V14.00,2013-03-20 07:17:00,
2013-03-20 01:22:00,16.4,8.0,30.33,SW,215,4.0,6.0,69,0.00,,BKN001,0.00,VWS V14.00,2013-03-20 07:22:00,
2013-03-20 01:27:00,16.3,7.9,30.33,SW,218,4.0,6.0,69,0.00,,BKN001,0.00,VWS V14.00,2013-03-20 07:27:00,
2013-03-20 01:30:00,18.5,9.1,30.32,SW,236,1.0,10.0,66,0.00,,BKN001,0.00,VWS V14.00,2013-03-20 07:30:00,
2013-03-20 01:32:00,16.2,7.8,30.33,SW,235,3.0,5.0,69,0.00,,BKN001,0.00,VWS V14.00,2013-03-20 07:32:00,
2013-03-20 01:37:00,16.0,8.0,30.33,SSW,200,4.0,7.0,70,0.00,,BKN001,0.00,VWS V14.00,2013-03-20 07:37:00,
2013-03-20 01:42:00,16.3,7.9,30.33,SW,219,8.0,9.0,69,0.00,,BKN001,0.00,VWS V14.00,2013-03-20 07:42:00,
2013-03-20 01:47:00,16.3,7.6,30.33,WSW,243,8.0,12.0,68,0.00,,BKN001,0.00,VWS V14.00,2013-03-20 07:47:00,
2013-03-20 01:52:00,16.6,7.9,30.33,SSW,205,7.0,12.0,68,0.00,,BKN001,0.00,VWS V14.00,2013-03-20 07:52:00,
2013-03-20 01:57:00,16.5,7.8,30.33,SSW,212,7.0,12.0,68,0.00,,BKN001,0.00,VWS V14.00,2013-03-20 07:57:00,
2013-03-20 02:00:00,17.7,8.3,30.32,WSW,240,5.0,7.0,66,0.00,,BKN001,0.00,VWS V14.00,2013-03-20 08:00:00,
2013-03-20 02:02:00,17.0,8.3,30.33,SSW,198,9.0,10.0,68,0.00,,BKN001,0.00,VWS V14.00,2013-03-20 08:02:00,
2013-03-20 02:07:00,17.5,8.4,30.33,SSW,208,8.0,11.0,67,0.00,,BKN001,0.00,VWS V14.00,2013-03-20 08:07:00,
2013-03-20 02:12:00,18.0,8.2,30.33,SSW,197,11.0,13.0,65,0.00,,BKN001,0.00,VWS V14.00,2013-03-20 08:12:00,
2013-03-20 02:17:00,18.2,8.1,30.33,South,184,10.0,13.0,64,0.00,,BKN001,0.00,VWS V14.00,2013-03-20 08:17:00,
2013-03-20 02:22:00,18.1,8.0,30.33,SSW,212,9.0,13.0,64,0.00,,BKN001,0.00,VWS V14.00,2013-03-20 08:22:00,
2013-03-20 02:27:00,18.3,7.8,30.33,South,186,11.0,14.0,63,0.00,,BKN001,0.00,VWS V14.00,2013-03-20 08:27:00,
2013-03-20 02:30:00,16.3,7.9,30.33,WSW,238,3.0,6.0,69,0.00,,BKN001,0.00,VWS V14.00,2013-03-20 08:30:00,
2013-03-20 02:32:00,18.1,7.6,30.33,South,177,11.0,13.0,63,0.00,,BKN001,0.00,VWS V14.00,2013-03-20 08:32:00,
2013-03-20 02:37:00,17.9,7.8,30.33,SSW,207,7.0,13.0,64,0.00,,BKN001,0.00,VWS V14.00,2013-03-20 08:37:00,
2013-03-20 02:42:00,18.0,7.9,30.33,SW,221,6.0,13.0,64,0.00,,BKN001,0.00,VWS V14.00,2013-03-20 08:42:00,
2013-03-20 02:47:00,17.9,7.8,30.34,SSW,204,4.0,13.0,64,0.00,,BKN001,0.00,VWS V14.00,2013-03-20 08:47:00,
2013-03-20 02:52:00,17.0,7.3,30.34,SW,225,5.0,13.0,65,0.00,,BKN001,0.00,VWS V14.00,2013-03-20 08:52:00,
2013-03-20 02:57:00,16.4,7.0,30.34,WSW,240,6.0,13.0,66,0.00,,BKN001,0.00,VWS V14.00,2013-03-20 08:57:00,
2013-03-20 03:00:00,16.8,8.1,30.33,SW,218,9.0,12.0,68,0.00,,BKN001,0.00,VWS V14.00,2013-03-20 09:00:00,
2013-03-20 03:02:00,15.8,7.1,30.34,SW,232,6.0,10.0,68,0.00,,BKN001,0.00,VWS V14.00,2013-03-20 09:02:00,
2013-03-20 03:07:00,16.3,7.3,30.33,South,188,11.0,13.0,67,0.00,,BKN001,0.00,VWS V14.00,2013-03-20 09:07:00,
2013-03-20 03:12:00,16.9,7.2,30.34,SW,218,10.0,14.0,65,0.00,,BKN001,0.00,VWS V14.00,2013-03-20 09:12:00,
2013-03-20 03:17:00,17.3,7.2,30.33,SSW,212,10.0,14.0,64,0.00,,BKN001,0.00,VWS V14.00,2013-03-20 09:17:00,
2013-03-20 03:22:00,17.2,7.1,30.33,SW,232,9.0,14.0,64,0.00,,BKN001,0.00,VWS V14.00,2013-03-20 09:22:00,
2013-03-20 03:27:00,16.3,6.9,30.33,WSW,242,9.0,14.0,66,0.00,,BKN001,0.00,VWS V14.00,2013-03-20 09:27:00,
2013-03-20 03:30:00,18.1,7.6,30.33,South,189,10.0,15.0,63,0.00,,BKN001,0.00,VWS V14.00,2013-03-20 09:30:00,
2013-03-20 03:32:00,15.7,7.0,30.34,SW,236,8.0,11.0,68,0.00,,BKN001,0.00,VWS V14.00,2013-03-20 09:32:00,
2013-03-20 03:37:00,15.8,7.1,30.34,SW,221,8.0,11.0,68,0.00,,BKN001,0.00,VWS V14.00,2013-03-20 09:37:00,
2013-03-20 03:42:00,15.9,6.9,30.33,SSW,201,9.0,11.0,67,0.00,,BKN001,0.00,VWS V14.00,2013-03-20 09:42:00,
2013-03-20 03:47:00,15.9,6.9,30.33,SSW,198,7.0,11.0,67,0.00,,BKN001,0.00,VWS V14.00,2013-03-20 09:47:00,
2013-03-20 03:52:00,15.6,6.6,30.33,SSW,197,7.0,11.0,67,0.00,,BKN001,0.00,VWS V14.00,2013-03-20 09:52:00,
2013-03-20 03:57:00,15.4,6.4,30.33,South,191,6.0,11.0,67,0.00,,BKN001,0.00,VWS V14.00,2013-03-20 09:57:00,
2013-03-20 04:00:00,15.9,6.9,30.34,WSW,240,8.0,13.0,67,0.00,,BKN001,0.00,VWS V14.00,2013-03-20 10:00:00,
2013-03-20 04:03:00,15.5,6.5,30.33,SW,217,8.0,10.0,67,0.00,,BKN001,0.00,VWS V14.00,2013-03-20 10:03:00,
2013-03-20 04:08:00,15.4,6.4,30.33,WSW,238,5.0,10.0,67,0.00,,BKN001,0.00,VWS V14.00,2013-03-20 10:08:00,
2013-03-20 04:13:00,15.1,6.5,30.33,SSW,204,6.0,10.0,68,0.00,,BKN001,0.00,VWS V14.00,2013-03-20 10:13:00,
2013-03-20 04:18:00,15.1,6.5,30.33,South,184,8.0,10.0,68,0.00,,BKN001,0.00,VWS V14.00,2013-03-20 10:18:00,
2013-03-20 04:23:00,14.9,6.3,30.33,SW,218,7.0,10.0,68,0.00,,BKN001,0.00,VWS V14.00,2013-03-20 10:23:00,
2013-03-20 04:28:00,14.0,5.7,30.33,South,179,7.0,10.0,69,0.00,,BKN001,0.00,VWS V14.00,2013-03-20 10:28:00,
2013-03-20 04:30:00,15.7,7.0,30.34,South,170,8.0,14.0,68,0.00,,BKN001,0.00,VWS V14.00,2013-03-20 10:30:00,
2013-03-20 04:33:00,13.3,5.7,30.33,SSW,212,8.0,11.0,71,0.00,,BKN001,0.00,VWS V14.00,2013-03-20 10:33:00,
2013-03-20 04:38:00,12.6,5.3,30.33,WSW,240,7.0,11.0,72,0.00,,BKN001,0.00,VWS V14.00,2013-03-20 10:38:00,
2013-03-20 04:43:00,11.9,4.9,30.33,SSW,194,4.0,11.0,73,0.00,,BKN001,0.00,VWS V14.00,2013-03-20 10:43:00,
2013-03-20 04:48:00,11.8,5.4,30.34,SSW,208,4.0,11.0,75,0.00,,BKN001,0.00,VWS V14.00,2013-03-20 10:48:00,
2013-03-20 04:53:00,11.6,4.9,30.34,SW,215,3.0,11.0,74,0.00,,BKN001,0.00,VWS V14.00,2013-03-20 10:53:00,
2013-03-20 04:58:00,11.1,4.4,30.34,SSW,210,2.0,11.0,74,0.00,,BKN001,0.00,VWS V14.00,2013-03-20 10:58:00,
2013-03-20 05:00:00,15.5,6.5,30.33,SW,218,8.0,11.0,67,0.00,,BKN001,0.00,VWS V14.00,2013-03-20 11:00:00,
2013-03-20 05:03:00,11.2,5.1,30.34,SSW,194,0.0,1.0,76,0.00,,BKN001,0.00,VWS V14.00,2013-03-20 11:03:00,
2013-03-20 05:08:00,11.0,4.6,30.35,SW,221,3.0,4.0,75,0.00,,BKN001,0.00,VWS V14.00,2013-03-20 11:08:00,
2013-03-20 05:13:00,11.1,4.7,30.35,WSW,248,2.0,4.0,75,0.00,,BKN001,0.00,VWS V14.00,2013-03-20 11:13:00,
2013-03-20 05:18:00,11.0,4.6,30.35,West,278,4.0,4.0,75,0.00,,BKN001,0.00,VWS V14.00,2013-03-20 11:18:00,
2013-03-20 05:23:00,11.0,4.6,30.35,WSW,242,5.0,6.0,75,0.00,,BKN001,0.00,VWS V14.00,2013-03-20 11:23:00,
2013-03-20 05:28:00,11.0,4.6,30.35,WSW,248,4.0,7.0,75,0.00,,BKN001,0.00,VWS V14.00,2013-03-20 11:28:00,
2013-03-20 05:30:00,13.4,5.5,30.33,SSW,197,8.0,10.0,70,0.00,,BKN001,0.00,VWS V14.00,2013-03-20 11:30:00,
2013-03-20 05:33:00,10.8,4.4,30.35,SW,215,3.0,5.0,75,0.00,,BKN001,0.00,VWS V14.00,2013-03-20 11:33:00,
2013-03-20 05:38:00,10.8,4.7,30.36,SW,218,4.0,5.0,76,0.00,,BKN001,0.00,VWS V14.00,2013-03-20 11:38:00,
2013-03-20 05:43:00,10.9,4.6,30.36,SSW,194,4.0,5.0,75,0.00,,BKN001,0.00,VWS V14.00,2013-03-20 11:43:00,
2013-03-20 05:48:00,10.8,4.4,30.36,South,184,2.0,6.0,75,0.00,,BKN001,0.00,VWS V14.00,2013-03-20 11:48:00,
2013-03-20 05:53:00,10.6,4.2,30.36,SW,221,1.0,6.0,75,0.00,,BKN001,0.00,VWS V14.00,2013-03-20 11:53:00,
2013-03-20 05:58:00,10.5,4.2,30.36,SW,221,4.0,6.0,75,0.00,,BKN001,0.00,VWS V14.00,2013-03-20 11:58:00,
2013-03-20 06:00:00,11.2,4.8,30.34,WSW,252,1.0,11.0,75,0.00,,BKN001,0.00,VWS V14.00,2013-03-20 12:00:00,
2013-03-20 06:03:00,10.3,4.0,30.36,South,176,4.0,5.0,75,0.00,,BKN001,0.00,VWS V14.00,2013-03-20 12:03:00,
2013-03-20 06:08:00,10.4,4.3,30.36,SSW,212,3.0,5.0,76,0.00,,BKN001,0.00,VWS V14.00,2013-03-20 12:08:00,
2013-03-20 06:13:00,10.2,3.9,30.37,SW,214,5.0,6.0,75,0.00,,BKN001,0.00,VWS V14.00,2013-03-20 12:13:00,
2013-03-20 06:18:00,10.0,3.7,30.37,SW,215,2.0,6.0,75,0.00,,BKN001,0.00,VWS V14.00,2013-03-20 12:18:00,
2013-03-20 06:23:00,9.7,3.7,30.36,SSW,210,2.0,6.0,76,0.00,,BKN001,0.00,VWS V14.00,2013-03-20 12:23:00,
2013-03-20 06:28:00,8.9,2.6,30.37,SW,215,3.0,6.0,75,0.00,,BKN001,0.00,VWS V14.00,2013-03-20 12:28:00,
2013-03-20 06:30:00,10.9,4.6,30.35,SW,229,4.0,7.0,75,0.00,,BKN001,0.00,VWS V14.00,2013-03-20 12:30:00,
2013-03-20 06:33:00,8.9,3.5,30.37,SE,139,3.0,6.0,78,0.00,,BKN001,0.00,VWS V14.00,2013-03-20 12:33:00,
2013-03-20 06:38:00,8.7,3.3,30.37,SE,145,0.0,6.0,78,0.00,,BKN001,0.00,VWS V14.00,2013-03-20 12:38:00,
2013-03-20 06:43:00,8.7,3.5,30.37,South,169,0.0,6.0,79,0.00,,BKN001,0.00,VWS V14.00,2013-03-20 12:43:00,
2013-03-20 06:48:00,8.6,3.2,30.37,SSW,207,3.0,6.0,78,0.00,,BKN001,0.00,VWS V14.00,2013-03-20 12:48:00,
2013-03-20 06:53:00,8.8,3.6,30.37,SW,215,3.0,6.0,79,0.00,,BKN001,0.00,VWS V14.00,2013-03-20 12:53:00,
2013-03-20 06:58:00,9.1,4.2,30.37,SW,221,3.0,6.0,80,0.00,,BKN001,0.00,VWS V14.00,2013-03-20 12:58:00,
2013-03-20 07:00:00,10.4,4.3,30.36,SSE,162,4.0,6.0,76,0.00,,BKN001,0.00,VWS V14.00,2013-03-20 13:00:00,
2013-03-20 07:03:00,9.7,4.2,30.36,SW,226,5.0,6.0,78,0.00,,BKN001,0.00,VWS V14.00,2013-03-20 13:03:00,
2013-03-20 07:08:00,9.0,3.3,30.37,West,262,5.0,7.0,77,0.00,,BKN001,0.00,VWS V14.00,2013-03-20 13:08:00,
2013-03-20 07:13:00,8.5,3.1,30.37,West,278,4.0,7.0,78,0.00,,BKN001,0.00,VWS V14.00,2013-03-20 13:13:00,
2013-03-20 07:19:00,8.3,3.1,30.37,WSW,256,4.0,7.0,79,0.00,,BKN001,0.00,VWS V14.00,2013-03-20 13:19:00,
2013-03-20 07:24:00,8.8,3.6,30.37,SW,215,4.0,8.0,79,0.00,,BKN001,0.00,VWS V14.00,2013-03-20 13:24:00,
2013-03-20 07:29:00,9.2,3.7,30.37,West,270,4.0,8.0,78,0.00,,BKN001,0.00,VWS V14.00,2013-03-20 13:29:00,
2013-03-20 07:30:00,8.9,3.2,30.37,SE,141,6.0,7.0,77,0.00,,BKN001,0.00,VWS V14.00,2013-03-20 13:30:00,
2013-03-20 07:34:00,9.2,3.5,30.38,WSW,238,3.0,5.0,77,0.00,,BKN001,0.00,VWS V14.00,2013-03-20 13:34:00,
2013-03-20 07:39:00,9.0,3.3,30.38,WSW,242,3.0,5.0,77,0.00,,BKN001,0.00,VWS V14.00,2013-03-20 13:39:00,
2013-03-20 07:44:00,9.0,3.5,30.38,WSW,248,2.0,5.0,78,0.00,,BKN001,0.00,VWS V14.00,2013-03-20 13:44:00,
2013-03-20 07:49:00,8.7,3.0,30.38,SW,229,4.0,6.0,77,0.00,,BKN001,0.00,VWS V14.00,2013-03-20 13:49:00,
2013-03-20 07:54:00,8.9,3.7,30.38,WSW,250,6.0,6.0,79,0.00,,BKN001,0.00,VWS V14.00,2013-03-20 13:54:00,
2013-03-20 07:59:00,9.3,3.8,30.38,SW,232,0.0,6.0,78,0.00,,BKN001,0.00,VWS V14.00,2013-03-20 13:59:00,
2013-03-20 08:00:00,9.6,4.7,30.36,SW,236,5.0,6.0,80,0.00,,BKN001,0.00,VWS V14.00,2013-03-20 14:00:00,
2013-03-20 08:04:00,10.0,4.2,30.38,WSW,255,6.0,8.0,77,0.00,,BKN001,0.00,VWS V14.00,2013-03-20 14:04:00,
2013-03-20 08:09:00,10.4,4.1,30.39,SW,224,6.0,10.0,75,0.00,,BKN001,0.00,VWS V14.00,2013-03-20 14:09:00,
2013-03-20 08:14:00,10.0,3.7,30.39,SW,236,4.0,10.0,75,0.00,,BKN001,0.00,VWS V14.00,2013-03-20 14:14:00,
2013-03-20 08:19:00,9.8,3.8,30.38,SSW,212,4.0,10.0,76,0.00,,BKN001,0.00,VWS V14.00,2013-03-20 14:19:00,
2013-03-20 08:24:00,10.0,3.7,30.38,SW,218,3.0,10.0,75,0.00,,BKN001,0.00,VWS V14.00,2013-03-20 14:24:00,
2013-03-20 08:29:00,10.5,4.2,30.38,SW,220,3.0,10.0,75,0.00,,BKN001,0.00,VWS V14.00,2013-03-20 14:29:00,
2013-03-20 08:30:00,9.3,3.8,30.37,WSW,241,4.0,8.0,78,0.00,,BKN001,0.00,VWS V14.00,2013-03-20 14:30:00,
2013-03-20 08:34:00,11.2,4.8,30.38,SW,215,4.0,5.0,75,0.00,,BKN001,0.00,VWS V14.00,2013-03-20 14:34:00,
2013-03-20 08:39:00,11.4,4.4,30.38,SW,218,4.0,6.0,73,0.00,,BKN001,0.00,VWS V14.00,2013-03-20 14:39:00,
2013-03-20 08:44:00,12.0,5.9,30.38,SSW,210,3.0,6.0,76,0.00,,BKN001,0.00,VWS V14.00,2013-03-20 14:44:00,
2013-03-20 08:49:00,12.9,5.9,30.38,SSW,194,2.0,6.0,73,0.00,,BKN001,0.00,VWS V14.00,2013-03-20 14:49:00,
2013-03-20 08:54:00,13.6,6.3,30.38,SW,235,5.0,6.0,72,0.00,,BKN001,0.00,VWS V14.00,2013-03-20 14:54:00,
2013-03-20 08:59:00,14.0,6.7,30.38,SW,226,6.0,6.0,72,0.00,,BKN001,0.00,VWS V14.00,2013-03-20 14:59:00,
2013-03-20 09:00:00,9.5,4.0,30.38,WSW,245,5.0,8.0,78,0.00,,BKN001,0.00,VWS V14.00,2013-03-20 15:00:00,
2013-03-20 09:04:00,14.8,7.1,30.37,SW,236,3.0,4.0,71,0.00,,BKN001,0.00,VWS V14.00,2013-03-20 15:04:00,
2013-03-20 09:09:00,15.5,7.8,30.37,WSW,256,2.0,5.0,71,0.00,,BKN001,0.00,VWS V14.00,2013-03-20 15:09:00,
2013-03-20 09:14:00,16.3,7.9,30.37,WSW,252,1.0,5.0,69,0.00,,BKN001,0.00,VWS V14.00,2013-03-20 15:14:00,
2013-03-20 09:19:00,17.0,8.6,30.36,West,269,1.0,5.0,69,0.00,,BKN001,0.00,VWS V14.00,2013-03-20 15:19:00,
2013-03-20 09:24:00,17.7,8.9,30.36,WSW,256,1.0,5.0,68,0.00,,BKN001,0.00,VWS V14.00,2013-03-20 15:24:00,
2013-03-20 09:29:00,18.1,9.0,30.36,WSW,238,0.0,5.0,67,0.00,,BKN001,0.00,VWS V14.00,2013-03-20 15:29:00,
2013-03-20 09:30:00,10.8,4.4,30.38,SSW,203,5.0,10.0,75,0.00,,BKN001,0.00,VWS V14.00,2013-03-20 15:30:00,
2013-03-20 09:34:00,18.7,8.9,30.35,WNW,291,1.0,2.0,65,0.00,,BKN001,0.00,VWS V14.00,2013-03-20 15:34:00,
2013-03-20 09:39:00,19.1,8.6,30.35,WSW,240,1.0,2.0,63,0.00,,BKN001,0.00,VWS V14.00,2013-03-20 15:39:00,
2013-03-20 09:44:00,20.1,9.5,30.34,SSW,207,0.0,3.0,63,0.00,,BKN001,0.00,VWS V14.00,2013-03-20 15:44:00,
2013-03-20 09:49:00,21.1,9.0,30.33,SW,225,0.0,3.0,59,0.00,,BKN001,0.00,VWS V14.00,2013-03-20 15:49:00,
2013-03-20 09:54:00,21.4,8.6,30.33,SW,231,0.0,3.0,57,0.00,,BKN001,0.00,VWS V14.00,2013-03-20 15:54:00,
2013-03-20 09:59:00,22.1,9.2,30.33,SSW,201,0.0,3.0,57,0.00,,BKN001,0.00,VWS V14.00,2013-03-20 15:59:00,
2013-03-20 10:00:00,14.2,6.8,30.38,SW,215,3.0,6.0,72,0.00,,BKN001,0.00,VWS V14.00,2013-03-20 16:00:00,
2013-03-20 10:04:00,23.1,8.9,30.32,WSW,252,1.0,2.0,54,0.00,,BKN001,0.00,VWS V14.00,2013-03-20 16:04:00,
2013-03-20 10:09:00,22.6,9.3,30.32,West,278,1.0,2.0,56,0.00,,BKN001,0.00,VWS V14.00,2013-03-20 16:09:00,
2013-03-20 10:14:00,22.6,8.5,30.31,West,278,0.0,2.0,54,0.00,,BKN001,0.00,VWS V14.00,2013-03-20 16:14:00,
2013-03-20 10:19:00,23.2,9.8,30.31,WNW,300,0.0,2.0,56,0.00,,BKN001,0.00,VWS V14.00,2013-03-20 16:19:00,
2013-03-20 10:24:00,23.4,7.9,30.31,WNW,291,1.0,2.0,51,0.00,,BKN001,0.00,VWS V14.00,2013-03-20 16:24:00,
2013-03-20 10:29:00,23.4,7.9,30.31,WNW,291,1.0,2.0,51,0.00,,BKN001,0.00,VWS V14.00,2013-03-20 16:29:00,
2013-03-20 10:30:00,18.4,9.6,30.36,West,260,0.0,5.0,68,0.00,,BKN001,0.00,VWS V14.00,2013-03-20 16:30:00,
2013-03-20 10:34:00,23.4,7.9,30.31,WNW,291,1.0,2.0,51,0.00,,BKN001,0.00,VWS V14.00,2013-03-20 16:34:00,
2013-03-20 10:39:00,23.4,7.9,30.31,WNW,291,1.0,2.0,51,0.00,,BKN001,0.00,VWS V14.00,2013-03-20 16:39:00,
2013-03-20 10:44:00,23.4,7.9,30.31,WNW,291,1.0,2.0,51,0.00,,BKN001,0.00,VWS V14.00,2013-03-20 16:44:00,
2013-03-20 10:49:00,23.4,7.9,30.31,WNW,291,1.0,2.0,51,0.00,,BKN001,0.00,VWS V14.00,2013-03-20 16:49:00,
2013-03-20 10:54:00,23.4,7.9,30.31,WNW,291,1.0,2.0,51,0.00,,BKN001,0.00,VWS V14.00,2013-03-20 16:54:00,
2013-03-20 10:59:00,23.4,7.9,30.31,WNW,291,1.0,2.0,51,0.00,,BKN001,0.00,VWS V14.00,2013-03-20 16:59:00,
2013-03-20 11:04:00,26.6,9.6,30.27,SW,224,2.0,3.0,48,0.00,,BKN001,0.00,VWS V14.00,2013-03-20 17:04:00,
2013-03-20 11:09:00,26.5,10.4,30.27,SSW,203,1.0,4.0,50,0.00,,BKN001,0.00,VWS V14.00,2013-03-20 17:09:00,
2013-03-20 11:14:00,26.6,10.9,30.26,SSW,207,3.0,4.0,51,0.00,,BKN001,0.00,VWS V14.00,2013-03-20 17:14:00,
2013-03-20 11:19:00,27.1,10.5,30.25,SSE,158,1.0,4.0,49,0.00,,BKN001,0.00,VWS V14.00,2013-03-20 17:19:00,
2013-03-20 11:24:00,27.7,11.0,30.25,SSE,164,3.0,4.0,49,0.00,,BKN001,0.00,VWS V14.00,2013-03-20 17:24:00,
2013-03-20 11:29:00,27.9,9.3,30.25,SSW,210,1.0,4.0,45,0.00,,BKN001,0.00,VWS V14.00,2013-03-20 17:29:00,
2013-03-20 11:34:00,28.1,10.0,30.25,SSW,204,1.0,1.0,46,0.00,,BKN001,0.00,VWS V14.00,2013-03-20 17:34:00,
2013-03-20 11:39:00,28.5,10.9,30.25,SSW,201,1.0,2.0,47,0.00,,BKN001,0.00,VWS V14.00,2013-03-20 17:39:00,
2013-03-20 11:44:00,28.7,11.5,30.25,WSW,252,2.0,3.0,48,0.00,,BKN001,0.00,VWS V14.00,2013-03-20 17:44:00,
2013-03-20 11:49:00,29.0,13.1,30.24,WSW,238,2.0,3.0,51,0.00,,BKN001,0.00,VWS V14.00,2013-03-20 17:49:00,
2013-03-20 11:54:00,29.2,9.5,30.23,West,261,0.0,3.0,43,0.00,,BKN001,0.00,VWS V14.00,2013-03-20 17:54:00,
2013-03-20 11:59:00,29.4,11.2,30.23,WSW,240,2.0,3.0,46,0.00,,BKN001,0.00,VWS V14.00,2013-03-20 17:59:00,
2013-03-20 12:04:00,29.6,12.8,30.23,South,173,1.0,2.0,49,0.00,,BKN001,0.00,VWS V14.00,2013-03-20 18:04:00,
2013-03-20 12:09:00,30.3,13.4,30.22,SSE,158,0.0,2.0,49,0.00,,BKN001,0.00,VWS V14.00,2013-03-20 18:09:00,
2013-03-20 12:14:00,30.6,13.3,30.22,WNW,283,0.0,2.0,48,0.00,,BKN001,0.00,VWS V14.00,2013-03-20 18:14:00,
2013-03-20 12:19:00,31.7,14.7,30.22,SSW,201,0.0,2.0,49,0.00,,BKN001,0.00,VWS V14.00,2013-03-20 18:19:00,
2013-03-20 12:24:00,32.9,13.4,30.21,SE,142,0.0,2.0,44,0.00,,BKN001,0.00,VWS V14.00,2013-03-20 18:24:00,
2013-03-20 12:29:00,33.6,15.5,30.21,NW,319,1.0,3.0,47,0.00,,BKN001,0.00,VWS V14.00,2013-03-20 18:29:00,
2013-03-20 12:34:00,33.2,15.2,30.21,WNW,299,4.0,6.0,47,0.00,,BKN001,0.00,VWS V14.00,2013-03-20 18:34:00,
2013-03-20 12:39:00,33.1,15.1,30.20,NW,319,0.0,6.0,47,0.00,,BKN001,0.00,VWS V14.00,2013-03-20 18:39:00,
2013-03-20 12:44:00,34.1,15.5,30.20,NE,39,0.0,6.0,46,0.00,,BKN001,0.00,VWS V14.00,2013-03-20 18:44:00,
2013-03-20 12:49:00,34.7,17.0,30.19,WNW,302,1.0,6.0,48,0.00,,BKN001,0.00,VWS V14.00,2013-03-20 18:49:00,
2013-03-20 12:54:00,35.3,16.1,30.19,SSW,207,2.0,6.0,45,0.00,,BKN001,0.00,VWS V14.00,2013-03-20 18:54:00,
2013-03-20 12:59:00,36.6,16.2,30.18,WSW,240,2.0,6.0,43,0.00,,BKN001,0.00,VWS V14.00,2013-03-20 18:59:00,
2013-03-20 13:04:00,37.1,17.7,30.18,SW,214,5.0,5.0,45,0.00,,BKN001,0.00,VWS V14.00,2013-03-20 19:04:00,
2013-03-20 13:09:00,38.3,19.9,30.18,SSW,207,6.0,7.0,47,0.00,,BKN001,0.00,VWS V14.00,2013-03-20 19:09:00,
2013-03-20 13:14:00,39.7,20.1,30.17,SW,225,4.0,8.0,45,0.00,,BKN001,0.00,VWS V14.00,2013-03-20 19:14:00,
2013-03-20 13:19:00,40.1,19.4,30.17,SSW,203,4.0,8.0,43,0.00,,BKN001,0.00,VWS V14.00,2013-03-20 19:19:00,
2013-03-20 13:24:00,40.8,18.4,30.16,South,177,6.0,9.0,40,0.00,,BKN001,0.00,VWS V14.00,2013-03-20 19:24:00,
2013-03-20 13:29:00,41.8,19.3,30.16,South,186,5.0,9.0,40,0.00,,BKN001,0.00,VWS V14.00,2013-03-20 19:29:00,
2013-03-20 13:34:00,42.2,17.2,30.15,South,187,10.0,11.0,36,0.00,,BKN001,0.00,VWS V14.00,2013-03-20 19:34:00,
2013-03-20 13:39:00,42.3,18.5,30.15,South,184,7.0,14.0,38,0.00,,BKN001,0.00,VWS V14.00,2013-03-20 19:39:00,
2013-03-20 13:44:00,42.4,18.6,30.15,SSE,162,11.0,14.0,38,0.00,,BKN001,0.00,VWS V14.00,2013-03-20 19:44:00,
2013-03-20 13:49:00,42.3,18.5,30.14,South,169,8.0,16.0,38,0.00,,BKN001,0.00,VWS V14.00,2013-03-20 19:49:00,
2013-03-20 13:54:00,42.4,20.4,30.14,South,183,12.0,17.0,41,0.00,,BKN001,0.00,VWS V14.00,2013-03-20 19:54:00,
2013-03-20 13:59:00,42.3,19.7,30.13,SSE,161,7.0,17.0,40,0.00,,BKN001,0.00,VWS V14.00,2013-03-20 19:59:00,
2013-03-20 14:04:00,42.2,20.2,30.12,SSE,168,10.0,14.0,41,0.00,,BKN001,0.00,VWS V14.00,2013-03-20 20:04:00,
2013-03-20 14:09:00,42.2,19.0,30.12,SSW,194,13.0,15.0,39,0.00,,BKN001,0.00,VWS V14.00,2013-03-20 20:09:00,
2013-03-20 14:14:00,42.3,19.7,30.11,SSE,159,8.0,15.0,40,0.00,,BKN001,0.00,VWS V14.00,2013-03-20 20:14:00,
2013-03-20 14:19:00,42.1,19.5,30.11,SSW,195,10.0,18.0,40,0.00,,BKN001,0.00,VWS V14.00,2013-03-20 20:19:00,
2013-03-20 14:24:00,41.7,20.3,30.11,South,177,18.0,19.0,42,0.00,,BKN001,0.00,VWS V14.00,2013-03-20 20:24:00,
2013-03-20 14:29:00,41.4,20.6,30.11,SSW,198,14.0,22.0,43,0.00,,BKN001,0.00,VWS V14.00,2013-03-20 20:29:00,
2013-03-20 14:34:00,41.3,21.6,30.11,SSE,150,10.0,17.0,45,0.00,,BKN001,0.00,VWS V14.00,2013-03-20 20:34:00,
2013-03-20 14:39:00,41.3,21.0,30.11,SSE,158,16.0,20.0,44,0.00,,BKN001,0.00,VWS V14.00,2013-03-20 20:39:00,
2013-03-20 14:45:00,41.4,22.2,30.10,South,169,17.0,20.0,46,0.00,,BKN001,0.00,VWS V14.00,2013-03-20 20:45:00,
2013-03-20 14:50:00,41.2,21.5,30.10,SSE,160,20.0,21.0,45,0.00,,BKN001,0.00,VWS V14.00,2013-03-20 20:50:00,
2013-03-20 14:55:00,41.2,21.5,30.10,SSE,153,12.0,21.0,45,0.00,,BKN001,0.00,VWS V14.00,2013-03-20 20:55:00,
2013-03-20 15:00:00,41.0,21.8,30.10,South,184,14.0,21.0,46,0.00,,BKN001,0.00,VWS V14.00,2013-03-20 21:00:00,
2013-03-20 15:05:00,41.0,22.3,30.10,South,183,15.0,19.0,47,0.00,,BKN001,0.00,VWS V14.00,2013-03-20 21:05:00,
2013-03-20 15:10:00,40.9,21.7,30.10,South,175,16.0,20.0,46,0.00,,BKN001,0.00,VWS V14.00,2013-03-20 21:10:00,
2013-03-20 15:15:00,40.9,22.2,30.10,South,184,10.0,20.0,47,0.00,,BKN001,0.00,VWS V14.00,2013-03-20 21:15:00,
2013-03-20 15:20:00,40.6,23.4,30.10,South,191,16.0,20.0,50,0.00,,BKN001,0.00,VWS V14.00,2013-03-20 21:20:00,
2013-03-20 15:25:00,40.7,22.1,30.10,SSE,156,14.0,20.0,47,0.00,,BKN001,0.00,VWS V14.00,2013-03-20 21:25:00,
2013-03-20 15:30:00,40.6,23.4,30.09,South,181,13.0,20.0,50,0.00,,BKN001,0.00,VWS V14.00,2013-03-20 21:30:00,
2013-03-20 15:35:00,40.5,23.8,30.09,South,180,12.0,15.0,51,0.00,,BKN001,0.00,VWS V14.00,2013-03-20 21:35:00,
2013-03-20 15:40:00,40.4,23.7,30.09,SSW,212,11.0,17.0,51,0.00,,BKN001,0.00,VWS V14.00,2013-03-20 21:40:00,
2013-03-20 15:45:00,40.4,24.2,30.09,SSW,192,9.0,17.0,52,0.00,,BKN001,0.00,VWS V14.00,2013-03-20 21:45:00,
2013-03-20 15:50:00,40.4,25.1,30.09,SSW,197,12.0,17.0,54,0.00,,BKN001,0.00,VWS V14.00,2013-03-20 21:50:00,
2013-03-20 15:55:00,40.4,23.2,30.09,South,186,16.0,20.0,50,0.00,,BKN001,0.00,VWS V14.00,2013-03-20 21:55:00,
2013-03-20 16:00:00,40.4,23.7,30.09,SSW,197,14.0,20.0,51,0.00,,BKN001,0.00,VWS V14.00,2013-03-20 22:00:00,
2013-03-20 16:05:00,40.7,23.5,30.09,WSW,237,12.0,20.0,50,0.00,,BKN001,0.00,VWS V14.00,2013-03-20 22:05:00,
2013-03-20 16:10:00,41.0,22.8,30.09,SW,226,6.0,20.0,48,0.00,,BKN001,0.00,VWS V14.00,2013-03-20 22:10:00,
2013-03-20 16:15:00,40.8,23.1,30.09,SSE,166,4.0,20.0,49,0.00,,BKN001,0.00,VWS V14.00,2013-03-20 22:15:00,
2013-03-20 16:20:00,40.5,24.3,30.08,SW,221,8.0,20.0,52,0.00,,BKN001,0.00,VWS V14.00,2013-03-20 22:20:00,
2013-03-20 16:25:00,40.2,25.3,30.08,SSW,194,6.0,20.0,55,0.00,,BKN001,0.00,VWS V14.00,2013-03-20 22:25:00,
2013-03-20 16:30:00,40.0,23.8,30.08,SSW,192,11.0,20.0,52,0.00,,BKN001,0.00,VWS V14.00,2013-03-20 22:30:00,
2013-03-20 16:35:00,39.6,25.6,30.08,SSW,205,8.0,12.0,57,0.00,,BKN001,0.00,VWS V14.00,2013-03-20 22:35:00,
2013-03-20 16:40:00,39.2,25.7,30.08,SSE,158,8.0,12.0,58,0.00,,BKN001,0.00,VWS V14.00,2013-03-20 22:40:00,
2013-03-20 16:45:00,38.9,25.4,30.07,South,169,8.0,13.0,58,0.00,,BKN001,0.00,VWS V14.00,2013-03-20 22:45:00,
2013-03-20 16:50:00,38.7,25.2,30.07,South,184,9.0,15.0,58,0.00,,BKN001,0.00,VWS V14.00,2013-03-20 22:50:00,
2013-03-20 16:55:00,38.5,25.8,30.08,SSE,159,9.0,15.0,60,0.00,,BKN001,0.00,VWS V14.00,2013-03-20 22:55:00,
2013-03-20 17:00:00,38.3,26.0,30.08,SSE,159,11.0,15.0,61,0.00,,BKN001,0.00,VWS V14.00,2013-03-20 23:00:00,
2013-03-20 17:05:00,38.1,26.2,30.08,South,169,10.0,12.0,62,0.00,,BKN001,0.00,VWS V14.00,2013-03-20 23:05:00,
2013-03-20 17:10:00,38.1,25.5,30.07,SSE,149,6.0,12.0,60,0.00,,BKN001,0.00,VWS V14.00,2013-03-20 23:10:00,
2013-03-20 17:15:00,38.2,25.5,30.07,South,177,9.0,14.0,60,0.00,,BKN001,0.00,VWS V14.00,2013-03-20 23:15:00,
2013-03-20 17:20:00,38.2,26.0,30.07,SSE,168,9.0,14.0,61,0.00,,BKN001,0.00,VWS V14.00,2013-03-20 23:20:00,
2013-03-20 17:25:00,38.1,26.2,30.07,South,179,13.0,15.0,62,0.00,,BKN001,0.00,VWS V14.00,2013-03-20 23:25:00,
2013-03-20 17:30:00,37.9,26.8,30.08,South,179,14.0,17.0,64,0.00,,BKN001,0.00,VWS V14.00,2013-03-20 23:30:00,
2013-03-20 17:35:00,37.5,26.8,30.08,SSE,158,11.0,14.0,65,0.00,,BKN001,0.00,VWS V14.00,2013-03-20 23:35:00,
2013-03-20 17:40:00,37.3,27.4,30.08,SSE,156,10.0,21.0,67,0.00,,BKN001,0.00,VWS V14.00,2013-03-20 23:40:00,
2013-03-20 17:45:00,36.9,27.7,30.07,SSE,156,13.0,21.0,69,0.00,,BKN001,0.00,VWS V14.00,2013-03-20 23:45:00,
2013-03-20 17:50:00,36.5,27.7,30.08,SSE,148,13.0,21.0,70,0.00,,BKN001,0.00,VWS V14.00,2013-03-20 23:50:00,
2013-03-20 17:55:00,36.3,27.8,30.07,South,169,11.0,21.0,71,0.00,,BKN001,0.00,VWS V14.00,2013-03-20 23:55:00,
2013-03-20 18:00:00,36.0,27.9,30.07,SSE,163,11.0,21.0,72,0.00,,BKN001,0.00,VWS V14.00,2013-03-21 00:00:00,
2013-03-20 18:05:00,35.7,28.2,30.07,SSW,192,11.0,13.0,74,0.00,,BKN001,0.00,VWS V14.00,2013-03-21 00:05:00,
2013-03-20 18:10:00,35.4,28.3,30.07,South,169,9.0,13.0,75,0.00,,BKN001,0.00,VWS V14.00,2013-03-21 00:10:00,
2013-03-20 18:15:00,35.3,28.2,30.07,SW,215,10.0,17.0,75,0.00,,BKN001,0.00,VWS V14.00,2013-03-21 00:15:00,
2013-03-20 18:20:00,35.2,28.1,30.07,South,177,8.0,17.0,75,0.00,,BKN001,0.00,VWS V14.00,2013-03-21 00:20:00,
2013-03-20 18:25:00,35.1,28.3,30.07,SSE,167,14.0,17.0,76,0.00,,BKN001,0.00,VWS V14.00,2013-03-21 00:25:00,
2013-03-20 18:30:00,35.1,28.0,30.06,South,183,10.0,17.0,75,0.00,,BKN001,0.00,VWS V14.00,2013-03-21 00:30:00,
2013-03-20 18:35:00,35.1,28.3,30.06,South,188,9.0,13.0,76,0.00,,BKN001,0.00,VWS V14.00,2013-03-21 00:35:00,
2013-03-20 18:40:00,35.0,28.2,30.06,South,176,8.0,13.0,76,0.00,,BKN001,0.00,VWS V14.00,2013-03-21 00:40:00,
2013-03-20 18:45:00,35.0,27.9,30.06,South,169,9.0,15.0,75,0.00,,BKN001,0.00,VWS V14.00,2013-03-21 00:45:00,
2013-03-20 18:50:00,35.0,27.9,30.06,South,174,9.0,15.0,75,0.00,,BKN001,0.00,VWS V14.00,2013-03-21 00:50:00,
2013-03-20 18:55:00,35.1,27.7,30.06,SSE,159,10.0,15.0,74,0.00,,BKN001,0.00,VWS V14.00,2013-03-21 00:55:00,
2013-03-20 19:00:00,35.0,27.9,30.06,South,172,9.0,15.0,75,0.00,,BKN001,0.00,VWS V14.00,2013-03-21 01:00:00,
2013-03-20 19:05:00,35.1,27.7,30.06,SE,141,11.0,14.0,74,0.00,,BKN001,0.00,VWS V14.00,2013-03-21 01:05:00,
2013-03-20 19:10:00,35.2,27.8,30.06,SE,134,7.0,16.0,74,0.00,,BKN001,0.00,VWS V14.00,2013-03-21 01:10:00,
2013-03-20 19:15:00,35.2,27.8,30.06,South,175,8.0,16.0,74,0.00,,BKN001,0.00,VWS V14.00,2013-03-21 01:15:00,
2013-03-20 19:20:00,35.1,28.0,30.06,South,176,10.0,16.0,75,0.00,,BKN001,0.00,VWS V14.00,2013-03-21 01:20:00,
2013-03-20 19:25:00,35.0,27.9,30.06,South,169,8.0,16.0,75,0.00,,BKN001,0.00,VWS V14.00,2013-03-21 01:25:00,
2013-03-20 19:30:00,34.9,27.8,30.06,South,172,7.0,16.0,75,0.00,,BKN001,0.00,VWS V14.00,2013-03-21 01:30:00,
2013-03-20 19:35:00,34.9,27.8,30.06,South,180,11.0,11.0,75,0.00,,BKN001,0.00,VWS V14.00,2013-03-21 01:35:00,
2013-03-20 19:40:00,34.8,27.7,30.05,South,174,8.0,11.0,75,0.00,,BKN001,0.00,VWS V14.00,2013-03-21 01:40:00,
2013-03-20 19:45:00,34.8,27.7,30.05,SSE,158,7.0,12.0,75,0.00,,BKN001,0.00,VWS V14.00,2013-03-21 01:45:00,
2013-03-20 19:50:00,34.8,28.0,30.05,SSW,207,7.0,12.0,76,0.00,,BKN001,0.00,VWS V14.00,2013-03-21 01:50:00,
2013-03-20 19:55:00,34.7,27.9,30.05,South,179,7.0,12.0,76,0.00,,BKN001,0.00,VWS V14.00,2013-03-21 01:55:00,
2013-03-20 20:00:00,34.6,27.8,30.06,South,188,11.0,12.0,76,0.00,,BKN001,0.00,VWS V14.00,2013-03-21 02:00:00,
2013-03-20 20:05:00,34.5,28.0,30.06,South,169,6.0,11.0,77,0.00,,BKN001,0.00,VWS V14.00,2013-03-21 02:05:00,
2013-03-20 20:10:00,34.5,27.7,30.06,South,173,9.0,12.0,76,0.00,,BKN001,0.00,VWS V14.00,2013-03-21 02:10:00,
2013-03-20 20:15:00,34.8,27.7,30.06,SSE,166,7.0,12.0,75,0.00,,BKN001,0.00,VWS V14.00,2013-03-21 02:15:00,
2013-03-20 20:20:00,34.7,27.9,30.06,South,180,7.0,12.0,76,0.00,,BKN001,0.00,VWS V14.00,2013-03-21 02:20:00,
2013-03-20 20:25:00,34.6,27.8,30.06,South,190,8.0,12.0,76,0.00,,BKN001,0.00,VWS V14.00,2013-03-21 02:25:00,
2013-03-20 20:30:00,34.7,27.9,30.06,South,174,9.0,12.0,76,0.00,,BKN001,0.00,VWS V14.00,2013-03-21 02:30:00,
2013-03-20 20:35:00,34.8,27.4,30.06,South,188,11.0,12.0,74,0.00,,BKN001,0.00,VWS V14.00,2013-03-21 02:35:00,
2013-03-20 20:40:00,34.9,27.8,30.06,SSE,162,9.0,12.0,75,0.00,,BKN001,0.00,VWS V14.00,2013-03-21 02:40:00,
2013-03-20 20:45:00,34.6,27.8,30.06,South,187,7.0,12.0,76,0.00,,BKN001,0.00,VWS V14.00,2013-03-21 02:45:00,
2013-03-20 20:50:00,34.3,27.9,30.06,SSW,192,7.0,12.0,77,0.00,,BKN001,0.00,VWS V14.00,2013-03-21 02:50:00,
2013-03-20 20:55:00,34.1,27.7,30.06,South,188,8.0,12.0,77,0.00,,BKN001,0.00,VWS V14.00,2013-03-21 02:55:00,
2013-03-20 21:00:00,34.1,27.7,30.06,SSE,167,7.0,12.0,77,0.00,,BKN001,0.00,VWS V14.00,2013-03-21 03:00:00,
2013-03-20 21:05:00,34.5,27.4,30.06,SE,139,9.0,11.0,75,0.00,,BKN001,0.00,VWS V14.00,2013-03-21 03:05:00,
2013-03-20 21:10:00,34.8,27.7,30.06,SSE,160,7.0,11.0,75,0.00,,BKN001,0.00,VWS V14.00,2013-03-21 03:10:00,
2013-03-20 21:15:00,34.9,27.8,30.06,SSE,166,6.0,11.0,75,0.00,,BKN001,0.00,VWS V14.00,2013-03-21 03:15:00,
2013-03-20 21:20:00,34.8,27.4,30.05,SSE,155,5.0,11.0,74,0.00,,BKN001,0.00,VWS V14.00,2013-03-21 03:20:00,
2013-03-20 21:25:00,34.7,27.6,30.05,SSE,166,6.0,11.0,75,0.00,,BKN001,0.00,VWS V14.00,2013-03-21 03:25:00,
2013-03-20 21:30:00,34.5,27.7,30.06,South,174,6.0,11.0,76,0.00,,BKN001,0.00,VWS V14.00,2013-03-21 03:30:00,
2013-03-20 21:35:00,34.4,27.6,30.05,SSE,160,5.0,8.0,76,0.00,,BKN001,0.00,VWS V14.00,2013-03-21 03:35:00,
2013-03-20 21:40:00,34.5,27.7,30.06,SSE,159,5.0,8.0,76,0.00,,BKN001,0.00,VWS V14.00,2013-03-21 03:40:00,
2013-03-20 21:45:00,34.5,27.7,30.06,SE,145,4.0,8.0,76,0.00,,BKN001,0.00,VWS V14.00,2013-03-21 03:45:00,
2013-03-20 21:50:00,34.4,27.6,30.05,South,169,5.0,8.0,76,0.00,,BKN001,0.00,VWS V14.00,2013-03-21 03:50:00,
2013-03-20 21:55:00,34.2,27.8,30.05,South,186,5.0,8.0,77,0.00,,BKN001,0.00,VWS V14.00,2013-03-21 03:55:00,
2013-03-20 22:00:00,34.0,27.9,30.05,South,179,3.0,8.0,78,0.00,,BKN001,0.00,VWS V14.00,2013-03-21 04:00:00,
2013-03-20 22:05:00,33.8,27.7,30.05,SSW,200,5.0,6.0,78,0.00,,BKN001,0.00,VWS V14.00,2013-03-21 04:05:00,
2013-03-20 22:10:00,33.7,27.6,30.05,South,188,4.0,7.0,78,0.00,,BKN001,0.00,VWS V14.00,2013-03-21 04:10:00,
2013-03-20 22:15:00,33.7,27.6,30.05,South,191,5.0,7.0,78,0.00,,BKN001,0.00,VWS V14.00,2013-03-21 04:15:00,
2013-03-20 22:20:00,33.5,27.7,30.04,South,191,8.0,8.0,79,0.00,,BKN001,0.00,VWS V14.00,2013-03-21 04:20:00,
2013-03-20 22:25:00,33.3,27.5,30.04,South,190,5.0,8.0,79,0.00,,BKN001,0.00,VWS V14.00,2013-03-21 04:25:00,
2013-03-20 22:30:00,33.1,27.3,30.04,SSE,166,6.0,8.0,79,0.00,,BKN001,0.00,VWS V14.00,2013-03-21 04:30:00,
2013-03-20 22:35:00,32.9,27.4,30.04,SSE,155,6.0,7.0,80,0.00,,BKN001,0.00,VWS V14.00,2013-03-21 04:35:00,
2013-03-20 22:40:00,32.8,27.3,30.04,SSE,150,5.0,8.0,80,0.00,,BKN001,0.00,VWS V14.00,2013-03-21 04:40:00,
2013-03-20 22:45:00,33.0,27.5,30.04,South,169,7.0,10.0,80,0.00,,BKN001,0.00,VWS V14.00,2013-03-21 04:45:00,
2013-03-20 22:50:00,33.6,27.5,30.04,SSE,164,5.0,11.0,78,0.00,,BKN001,0.00,VWS V14.00,2013-03-21 04:50:00,
2013-03-20 22:55:00,33.6,27.5,30.04,SSE,148,6.0,11.0,78,0.00,,BKN001,0.00,VWS V14.00,2013-03-21 04:55:00,
2013-03-20 23:00:00,33.6,27.5,30.03,SSW,200,4.0,11.0,78,0.00,,BKN001,0.00,VWS V14.00,2013-03-21 05:00:00,
2013-03-20 23:05:00,33.4,27.6,30.03,SSE,167,5.0,7.0,79,0.00,,BKN001,0.00,VWS V14.00,2013-03-21 05:05:00,
2013-03-20 23:10:00,33.2,27.4,30.03,SE,145,6.0,7.0,79,0.00,,BKN001,0.00,VWS V14.00,2013-03-21 05:10:00,
2013-03-20 23:15:00,32.9,27.1,30.03,South,177,5.0,8.0,79,0.00,,BKN001,0.00,VWS V14.00,2013-03-21 05:15:00,
2013-03-20 23:20:00,32.5,27.0,30.02,SSE,163,4.0,8.0,80,0.00,,BKN001,0.00,VWS V14.00,2013-03-21 05:20:00,
2013-03-20 23:25:00,32.3,26.8,30.02,South,174,3.0,8.0,80,0.00,,BKN001,0.00,VWS V14.00,2013-03-21 05:25:00,
2013-03-20 23:30:00,32.0,26.5,30.01,SSE,148,6.0,8.0,80,0.00,,BKN001,0.00,VWS V14.00,2013-03-21 05:30:00,
2013-03-20 23:35:00,31.1,26.0,30.01,SSE,163,3.0,6.0,81,0.00,,BKN001,0.00,VWS V14.00,2013-03-21 05:35:00,
2013-03-20 23:40:00,31.1,26.3,30.02,South,170,3.0,6.0,82,0.00,,BKN001,0.00,VWS V14.00,2013-03-21 05:40:00,
2013-03-20 23:45:00,30.6,25.5,30.01,SSE,148,4.0,6.0,81,0.00,,BKN001,0.00,VWS V14.00,2013-03-21 05:45:00,
2013-03-20 23:50:00,30.2,25.7,30.01,SSE,163,3.0,6.0,83,0.00,,BKN001,0.00,VWS V14.00,2013-03-21 05:50:00,
2013-03-20 23:55:00,30.3,25.8,30.01,South,169,4.0,6.0,83,0.00,,BKN001,0.00,VWS V14.00,2013-03-21 05:55:00,